Pagina principale
METAR-TAF:

METAR-TAF

Aeroporti :

Aeroporto di Klagenfurt

Klagenfurt, Austria

latitudine: 46-39N, longitudine: 014-20E, altezza: 448 m

Osservazione

Il bollettino è stato emesso 34 minuti fa, alle 02:50 UTC
Vento 3 kt da ovest/nord-ovest, variando fra sud-ovest e nord-ovest
Temperature 0°C
Umidità 93%
Pressione 1027 hPa
Visibilità 10 km o più

METAR: LOWK 270250Z AUTO 29003KT 220V310 9999 NSC 00/M01 Q1027

Ora: 04:24 (03:24 UTC)

Previsione

Il bollettino è stato emesso 4 ore e 9 minuti fa, alle 23:15 UTC
Previsione valida dal 27 alle 00 UTC al 27 alle 24 UTC
Vento 2 kt da direzioni variabili
Visibilità 10 km o più
nessuna nube inferiore a 1500 m e nessun cumulonembo
Probabilità 40% :
Temporaneamente
dal 27 alle 04 UTC al 27 alle 08 UTC
pioggia debole
Temporaneamente
dal 27 alle 10 UTC al 27 alle 17 UTC
Vento 8 kt da nord/nord-est

TAF: LOWK 262315Z 2700/2724 VRB02KT CAVOK TX11/2715Z TN00/2704Z PROB40 TEMPO 2704/2708 -RA TEMPO 2710/2717 03008KT

Osservazioni e previsioni meteorologiche di più di 4000 aeroporti (messaggi METAR e TAF).

Le stazioni disponibili sono rappresentate dai dischi gialli e rossi sulla carta.

Puntare il mouse per vedere il nome della stazione.

Clicca sopra per visualizzare le osservazioni e previsioni meteorologiche.

Per cambiare la mappa : fare clic sui pulsanti verdi con una croce nera per ingrandire, il pulsante verde con un trattino per diminuire, o sulla freccia verde per le mappe adiacenti.


METAR-TAF: